.
WxDataArchive / Data Records for 2011-06-20
2011-06-19 June 2011 2011-06-21

Data Records for Monday, 20 June 2011

Time	Temp	Chill	HIndex	Humid	Dewpt	 Wind 	HiWind	WindDir	Rain 	Barom 
-----	----	-----	------	-----	-----	------	------	-------	-----	----- 
00:00	69.9	69.9	69.9	88	66.2	0	0	---	0.00	29.800 
00:05	69.8	69.8	69.8	89	66.4	0	0	---	0.00	29.800 
00:10	69.6	69.6	69.6	89	66.2	0	0	---	0.00	29.800 
00:15	69.4	69.4	69.4	89	66.0	0	0	---	0.00	29.803 
00:20	69.3	69.3	69.3	89	65.9	0	0	---	0.00	29.803 
00:25	69.1	69.1	69.1	90	66.0	0	0	---	0.00	29.803 
00:30	69.1	69.1	69.1	90	66.0	0	0	---	0.00	29.805 
00:35	68.9	68.9	68.9	90	65.8	0	0	---	0.00	29.805 
00:40	68.8	68.8	68.8	91	66.1	0	0	---	0.00	29.805 
00:45	68.8	68.8	68.8	91	66.1	0	0	---	0.00	29.806 
00:50	68.8	68.8	68.8	91	66.1	0	0	---	0.00	29.806 
00:55	68.6	68.6	68.6	92	66.2	0	0	---	0.00	29.806 
01:00	68.6	68.6	68.6	92	66.2	0	0	---	0.00	29.804 
01:05	68.4	68.4	68.4	92	66.0	0	0	---	0.00	29.804 
01:10	68.4	68.4	68.4	92	66.0	0	0	---	0.00	29.804 
01:15	68.3	68.3	68.3	92	65.9	0	1	112	0.00	29.803 
01:20	68.3	68.3	68.3	92	65.9	0	0	---	0.00	29.803 
01:25	68.1	68.1	68.1	92	65.7	0	0	---	0.00	29.803 
01:30	67.9	67.9	67.9	92	65.5	0	0	---	0.00	29.803 
01:35	67.8	67.8	67.8	92	65.4	0	0	---	0.00	29.803 
01:40	67.6	67.6	67.6	92	65.2	0	0	---	0.00	29.803 
01:45	67.4	67.4	67.4	92	65.0	0	0	---	0.00	29.805 
01:50	67.3	67.3	67.3	92	64.9	0	0	---	0.00	29.805 
01:55	67.1	67.1	67.1	92	64.7	0	0	---	0.00	29.805 
02:00	67.1	67.1	67.1	92	64.7	0	0	---	0.00	29.804 
02:05	66.9	66.9	66.9	93	64.8	0	0	---	0.00	29.804 
02:10	66.9	66.9	66.9	93	64.8	0	0	---	0.00	29.804 
02:15	66.8	66.8	66.8	93	64.7	0	0	---	0.00	29.801 
02:20	66.8	66.8	66.8	93	64.7	0	0	---	0.00	29.801 
02:25	66.6	66.6	66.6	93	64.5	0	0	---	0.00	29.801 
02:30	66.8	66.8	66.8	93	64.7	0	0	---	0.00	29.793 
02:35	66.8	66.8	66.8	93	64.7	0	0	---	0.00	29.793 
02:40	66.8	66.8	66.8	94	65.0	0	0	---	0.00	29.793 
02:45	66.8	66.8	66.8	94	65.0	0	0	---	0.00	29.791 
02:50	66.9	66.9	66.9	94	65.1	0	0	---	0.00	29.791 
02:55	66.9	66.9	66.9	94	65.1	0	0	---	0.00	29.791 
03:00	67.1	67.1	67.1	94	65.3	0	0	---	0.00	29.781 
03:05	67.1	67.1	67.1	94	65.3	0	0	---	0.00	29.781 
03:10	67.1	67.1	67.1	94	65.3	0	0	---	0.00	29.781 
03:15	67.1	67.1	67.1	94	65.3	0	0	---	0.00	29.776 
03:20	67.1	67.1	67.1	94	65.3	0	0	---	0.00	29.776 
03:25	66.9	66.9	66.9	94	65.1	0	0	---	0.00	29.776 
03:30	66.8	66.8	66.8	94	65.0	0	0	---	0.00	29.777 
03:35	66.8	66.8	66.8	94	65.0	0	0	---	0.00	29.777 
03:40	66.6	66.6	66.6	94	64.8	0	0	---	0.00	29.777 
03:45	66.4	66.4	66.4	94	64.6	0	0	---	0.00	29.781 
03:50	66.3	66.3	66.3	94	64.5	0	0	---	0.00	29.781 
03:55	66.3	66.3	66.3	94	64.5	0	0	---	0.00	29.781 
04:00	66.0	66.0	66.0	94	64.2	0	0	---	0.00	29.792 
04:05	66.0	66.0	66.0	94	64.2	0	0	---	0.00	29.792 
04:10	65.8	65.8	65.8	94	64.0	0	0	---	0.00	29.792 
04:15	65.6	65.6	65.6	95	64.1	0	0	---	0.00	29.797 
04:20	65.6	65.6	65.6	95	64.1	0	0	---	0.00	29.797 
04:25	65.5	65.5	65.5	94	63.7	0	0	---	0.00	29.797 
04:30	65.3	65.3	65.3	95	63.8	0	0	---	0.00	29.799 
04:35	65.3	65.3	65.3	94	63.5	0	1	112	0.00	29.799 
04:40	65.0	65.0	65.0	95	63.5	0	0	---	0.00	29.799 
04:45	65.0	65.0	65.0	95	63.5	0	0	---	0.00	29.788 
04:50	65.0	65.0	65.0	95	63.5	0	0	---	0.00	29.788 
04:55	64.8	64.8	64.8	95	63.3	0	0	---	0.00	29.788 
05:00	64.8	64.8	64.8	95	63.3	0	0	---	0.00	29.794 
05:05	64.7	64.7	64.7	95	63.2	0	0	---	0.00	29.794 
05:10	64.7	64.7	64.7	95	63.2	0	0	---	0.00	29.794 
05:15	64.7	64.7	64.7	95	63.2	0	0	---	0.00	29.794 
05:20	64.5	64.5	64.5	95	63.0	0	0	---	0.00	29.794 
05:25	64.5	64.5	64.5	95	63.0	0	0	---	0.00	29.794 
05:30	64.7	64.7	64.7	95	63.2	0	0	---	0.00	29.788 
05:35	64.7	64.7	64.7	95	63.2	0	0	---	0.00	29.788 
05:40	64.7	64.7	64.7	95	63.2	0	0	---	0.00	29.788 
05:45	64.7	64.7	64.7	95	63.2	0	1	112	0.00	29.787 
05:50	64.7	64.7	64.7	96	63.5	0	1	112	0.00	29.787 
05:55	64.7	64.7	64.7	96	63.5	0	0	---	0.00	29.787 
06:00	64.7	64.7	64.7	96	63.5	0	2	112	0.00	29.783 
06:05	64.7	64.7	64.7	96	63.5	0	0	---	0.00	29.783 
06:10	64.7	64.7	64.7	96	63.5	0	0	---	0.00	29.783 
06:15	64.7	64.7	64.7	96	63.5	0	0	---	0.00	29.789 
06:20	64.7	64.7	64.7	96	63.5	0	0	---	0.00	29.789 
06:25	64.7	64.7	64.7	96	63.5	0	0	---	0.00	29.789 
06:30	64.7	64.7	64.7	96	63.5	0	0	---	0.00	29.787 
06:35	64.7	64.7	64.7	96	63.5	0	1	248	0.00	29.787 
06:40	64.7	64.7	64.7	96	63.5	0	0	---	0.00	29.787 
06:45	64.8	64.8	64.8	96	63.6	0	0	---	0.00	29.782 
06:50	64.8	64.8	64.8	96	63.6	0	0	---	0.00	29.782 
06:55	65.0	65.0	65.0	96	63.8	0	1	248	0.00	29.782 
07:00	65.2	65.2	65.2	96	64.0	0	1	248	0.00	29.779 
07:05	65.3	65.3	65.3	96	64.1	0	0	---	0.00	29.779 
07:10	65.3	65.3	65.3	96	64.1	0	0	---	0.00	29.779 
07:15	65.5	65.5	65.5	96	64.3	0	0	---	0.00	29.780 
07:20	65.8	65.8	65.8	96	64.6	0	0	---	0.00	29.780 
07:25	66.0	66.0	66.0	96	64.8	0	1	248	0.00	29.780 
07:30	66.1	66.1	66.1	96	64.9	0	3	248	0.00	29.773 
07:35	66.3	66.3	66.3	96	65.1	0	2	248	0.00	29.773 
07:40	66.4	66.4	66.4	96	65.2	0	1	270	0.00	29.773 
07:45	66.6	66.6	66.6	96	65.4	0	1	270	0.00	29.772 
07:50	66.8	66.8	66.8	96	65.6	0	0	---	0.00	29.772 
07:55	67.1	67.1	67.1	96	65.9	0	1	270	0.00	29.772 
08:00	67.3	67.3	67.3	96	66.1	0	1	270	0.00	29.777 
08:05	67.6	67.6	67.6	96	66.4	0	1	270	0.00	29.777 
08:10	67.9	67.9	67.9	96	66.7	0	2	270	0.00	29.777 
08:15	68.1	68.1	68.1	96	66.9	0	2	270	0.00	29.776 
08:20	68.4	68.4	68.4	96	67.2	0	2	270	0.00	29.776 
08:25	68.6	68.6	68.6	96	67.4	1	2	270	0.00	29.776 
08:30	68.8	68.8	68.8	96	67.6	0	1	270	0.00	29.761 
08:35	68.9	68.9	68.9	96	67.7	0	1	270	0.00	29.761 
08:40	69.1	69.1	69.1	95	67.6	0	1	270	0.00	29.761 
08:45	69.1	69.1	69.1	95	67.6	0	1	270	0.00	29.774 
08:50	69.1	69.1	69.1	94	67.3	0	1	270	0.00	29.774 
08:55	69.4	69.4	69.4	94	67.6	0	1	270	0.00	29.774 
09:00	69.4	69.4	69.4	94	67.6	0	1	270	0.00	29.784 
09:05	69.6	69.6	69.6	94	67.8	0	0	---	0.00	29.784 
09:10	69.6	69.6	69.6	93	67.5	0	0	---	0.00	29.784 
09:15	69.6	69.6	69.6	93	67.5	0	1	270	0.00	29.806 
09:20	69.6	69.6	69.6	93	67.5	0	1	270	0.00	29.806 
09:25	69.6	69.6	69.6	93	67.5	0	1	270	0.00	29.806 
09:30	69.6	69.6	69.6	93	67.5	0	0	---	0.00	29.816 
09:35	69.6	69.6	69.6	93	67.5	0	1	270	0.00	29.816 
09:40	69.8	69.8	69.8	93	67.7	0	2	270	0.03	29.816 
09:45	69.8	69.8	69.8	93	67.7	0	1	270	0.02	29.854 
09:50	69.8	69.8	69.8	93	67.7	0	1	270	0.00	29.854 
09:55	69.8	69.8	69.8	93	67.7	0	2	270	0.00	29.854 
10:00	69.6	69.6	69.6	93	67.5	1	4	270	0.01	29.875 
10:05	69.1	69.1	69.1	93	67.0	3	7	270	0.04	29.875 
10:10	68.9	68.9	68.9	93	66.8	3	7	270	0.03	29.875 
10:15	68.8	68.8	68.8	93	66.7	1	4	315	0.00	29.869 
10:20	68.4	68.4	68.4	93	66.3	0	5	112	0.01	29.869 
10:25	68.3	68.3	68.3	93	66.2	0	2	90	0.00	29.869 
10:30	68.1	68.1	68.1	93	66.0	0	2	90	0.00	29.854 
10:35	67.6	67.6	67.6	93	65.5	1	3	292	0.01	29.854 
10:40	67.6	67.6	67.6	93	65.5	0	2	292	0.01	29.854 
10:45	67.6	67.6	67.6	93	65.5	0	1	292	0.02	29.860 
10:50	67.4	67.4	67.4	94	65.6	0	1	292	0.01	29.860 
10:55	67.4	67.4	67.4	94	65.6	0	1	292	0.01	29.860 
11:00	67.4	67.4	67.4	94	65.6	0	1	292	0.02	29.861 
11:05	67.3	67.3	67.3	94	65.5	0	1	292	0.01	29.861 
11:10	67.1	67.1	67.1	94	65.3	0	3	292	0.01	29.861 
11:15	66.9	66.9	66.9	94	65.1	0	1	292	0.01	29.846 
11:20	66.9	66.9	66.9	94	65.1	0	1	292	0.00	29.846 
11:25	66.9	66.9	66.9	94	65.1	0	2	45	0.01	29.846 
11:30	66.9	66.9	66.9	94	65.1	0	0	---	0.00	29.814 
11:35	66.9	66.9	66.9	95	65.4	0	1	45	0.01	29.814 
11:40	67.1	67.1	67.1	95	65.6	0	3	45	0.00	29.814 
11:45	67.1	67.1	67.1	95	65.6	0	1	45	0.00	29.815 
11:50	67.1	67.1	67.1	95	65.6	0	1	45	0.01	29.815 
11:55	67.3	67.3	67.3	95	65.8	0	3	45	0.00	29.815 
12:00	67.3	67.3	67.3	95	65.8	0	2	45	0.01	29.813 
12:05	67.3	67.3	67.3	95	65.8	0	1	45	0.00	29.813 
12:10	67.4	67.4	67.4	95	65.9	0	2	45	0.00	29.813 
12:15	67.4	67.4	67.4	95	65.9	1	5	45	0.00	29.801 
12:20	67.4	67.4	67.4	95	65.9	1	3	68	0.01	29.801 
12:25	67.4	67.4	67.4	95	65.9	2	4	45	0.00	29.801 
12:30	67.4	67.4	67.4	95	65.9	0	3	0	0.01	29.838 
12:35	67.3	67.3	67.3	95	65.8	1	3	90	0.01	29.838 
12:40	67.3	67.3	67.3	95	65.8	1	3	112	0.00	29.838 
12:45	67.3	67.3	67.3	95	65.8	0	2	112	0.01	29.843 
12:50	67.3	67.3	67.3	95	65.8	1	4	112	0.04	29.843 
12:55	67.1	67.1	67.1	95	65.6	1	3	112	0.03	29.843 
13:00	67.1	67.1	67.1	95	65.6	2	4	90	0.01	29.828 
13:05	67.1	67.1	67.1	95	65.6	2	5	68	0.00	29.828 
13:10	67.1	67.1	67.1	95	65.6	2	5	90	0.00	29.828 
13:15	67.1	67.1	67.1	95	65.6	1	4	68	0.00	29.830 
13:20	67.1	67.1	67.1	95	65.6	2	4	112	0.00	29.830 
13:25	67.3	67.3	67.3	95	65.8	0	4	90	0.00	29.830 
13:30	67.4	67.4	67.4	95	65.9	1	4	68	0.00	29.816 
13:35	67.3	67.3	67.3	95	65.8	2	4	90	0.01	29.816 
13:40	67.3	67.3	67.3	95	65.8	1	2	112	0.00	29.816 
13:45	67.4	67.4	67.4	95	65.9	0	2	112	0.00	29.809 
13:50	67.6	67.6	67.6	95	66.1	0	2	112	0.00	29.809 
13:55	67.8	67.8	67.8	95	66.3	0	3	112	0.00	29.809 
14:00	67.9	67.9	67.9	95	66.4	0	3	112	0.00	29.821 
14:05	68.1	68.1	68.1	95	66.6	0	1	112	0.00	29.821 
14:10	68.4	68.4	68.4	95	66.9	0	1	112	0.00	29.821 
14:15	68.8	68.8	68.8	95	67.3	0	1	112	0.00	29.819 
14:20	68.9	68.9	68.9	95	67.4	0	2	112	0.00	29.819 
14:25	69.3	69.3	69.3	95	67.8	0	1	112	0.00	29.819 
14:30	69.6	69.6	69.6	94	67.8	0	1	112	0.00	29.821 
14:35	69.4	69.4	69.4	94	67.6	0	2	112	0.00	29.821 
14:40	69.3	69.3	69.3	93	67.2	0	3	112	0.00	29.821 
14:45	68.9	68.9	68.9	93	66.8	1	3	315	0.00	29.814 
14:50	69.1	69.1	69.1	92	66.7	1	3	112	0.00	29.814 
14:55	69.6	69.6	69.6	92	67.2	0	2	112	0.00	29.814 
15:00	69.8	69.8	69.8	92	67.4	1	3	112	0.00	29.831 
15:05	70.1	70.1	70.1	91	67.3	1	5	112	0.00	29.831 
15:10	70.6	70.6	70.6	91	67.8	0	4	68	0.00	29.831 
15:15	70.8	70.8	70.8	89	67.4	1	5	270	0.00	29.816 
15:20	71.1	71.1	71.1	87	67.0	1	5	292	0.00	29.816 
15:25	71.3	71.3	71.3	86	66.9	1	4	270	0.00	29.816 
15:30	71.1	71.1	71.1	84	66.0	1	3	45	0.00	29.804 
15:35	70.9	70.9	70.9	84	65.8	1	4	22	0.00	29.804 
15:40	70.9	70.9	70.9	84	65.8	1	5	90	0.00	29.804 
15:45	70.9	70.9	70.9	83	65.5	1	5	90	0.00	29.784 
15:50	71.3	71.3	71.3	84	66.2	1	4	135	0.00	29.784 
15:55	71.5	71.5	71.5	83	66.1	0	2	45	0.00	29.784 
16:00	72.0	72.0	72.0	82	66.2	1	6	68	0.00	29.784 
16:05	72.1	72.1	72.1	81	65.9	1	4	0	0.00	29.784 
16:10	72.5	72.5	72.5	81	66.3	1	4	112	0.00	29.784 
16:15	72.7	72.7	72.7	80	66.2	2	6	90	0.00	29.783 
16:20	73.2	73.2	73.2	79	66.3	2	6	112	0.00	29.783 
16:25	74.0	74.0	74.0	79	67.1	1	3	68	0.00	29.783 
16:30	74.6	74.6	74.6	77	66.9	2	6	112	0.00	29.780 
16:35	74.7	74.7	74.7	75	66.2	3	6	112	0.00	29.780 
16:40	75.1	75.1	76.3	75	66.6	1	5	22	0.00	29.780 
16:45	75.4	75.4	76.5	76	67.3	1	7	90	0.00	29.769 
16:50	75.6	75.6	77.0	73	66.3	1	4	90	0.00	29.769 
16:55	75.6	75.6	77.0	73	66.3	1	3	270	0.00	29.769 
17:00	75.6	75.6	77.1	72	65.9	0	3	270	0.00	29.773 
17:05	75.4	75.4	76.9	72	65.7	1	3	112	0.00	29.773 
17:10	75.3	75.3	76.7	73	66.0	1	6	90	0.00	29.773 
17:15	75.4	75.4	76.7	74	66.5	1	2	315	0.00	29.780 
17:20	75.8	75.8	77.2	74	66.9	1	3	68	0.00	29.780 
17:25	75.6	75.6	77.1	72	65.9	1	5	90	0.00	29.780 
17:30	75.4	75.4	76.8	73	66.1	0	3	90	0.00	29.771 
17:35	75.3	75.3	76.7	73	66.0	1	4	90	0.00	29.771 
17:40	75.1	75.1	76.5	73	65.8	0	3	0	0.00	29.771 
17:45	75.1	75.1	76.6	72	65.4	1	3	90	0.00	29.766 
17:50	75.3	75.3	76.9	71	65.2	2	5	90	0.00	29.766 
17:55	75.6	75.6	77.1	72	65.9	0	3	22	0.00	29.766 
18:00	75.6	75.6	77.2	71	65.5	1	3	90	0.00	29.781 
18:05	75.4	75.4	76.9	72	65.7	1	3	68	0.00	29.781 
18:10	75.4	75.4	76.8	73	66.1	0	2	90	0.00	29.781 
18:15	75.4	75.4	76.8	73	66.1	0	3	90	0.00	29.792 
18:20	75.6	75.6	77.0	73	66.3	0	2	90	0.00	29.792 
18:25	75.8	75.8	77.3	73	66.5	1	3	68	0.00	29.792 
18:30	75.8	75.8	77.3	73	66.5	1	6	90	0.00	29.782 
18:35	75.6	75.6	77.0	73	66.3	0	3	90	0.00	29.782 
18:40	75.6	75.6	77.0	74	66.7	0	1	90	0.00	29.782 
18:45	75.6	75.6	76.9	75	67.1	0	2	90	0.00	29.791 
18:50	75.6	75.6	77.0	74	66.7	1	3	90	0.00	29.791 
18:55	75.6	75.6	77.0	73	66.3	1	4	90	0.00	29.791 
19:00	75.6	75.6	77.0	73	66.3	0	2	135	0.00	29.794 
19:05	75.6	75.6	77.0	73	66.3	0	1	135	0.00	29.794 
19:10	75.4	75.4	76.8	73	66.1	0	2	135	0.00	29.794 
19:15	75.3	75.3	76.7	73	66.0	1	3	90	0.00	29.793 
19:20	75.3	75.3	76.7	73	66.0	0	3	90	0.00	29.793 
19:25	75.3	75.3	76.6	74	66.4	0	2	90	0.00	29.793 
19:30	75.4	75.4	76.7	74	66.5	1	4	90	0.00	29.793 
19:35	75.4	75.4	76.8	73	66.1	1	5	135	0.00	29.793 
19:40	75.6	75.6	77.0	74	66.7	0	2	68	0.00	29.793 
19:45	75.4	75.4	76.7	74	66.5	1	5	68	0.00	29.794 
19:50	75.4	75.4	76.6	75	66.9	1	3	135	0.00	29.794 
19:55	75.4	75.4	76.5	76	67.3	0	2	90	0.00	29.794 
20:00	75.3	75.3	76.4	76	67.2	0	2	90	0.00	29.800 
20:05	75.3	75.3	76.3	77	67.6	0	3	90	0.00	29.800 
20:10	75.1	75.1	76.1	77	67.4	0	1	90	0.00	29.800 
20:15	74.9	74.9	74.9	77	67.2	0	1	90	0.00	29.798 
20:20	74.7	74.7	74.7	77	67.0	0	0	---	0.00	29.798 
20:25	74.6	74.6	74.6	78	67.3	0	0	---	0.00	29.798 
20:30	74.6	74.6	74.6	79	67.6	0	0	---	0.00	29.795 
20:35	74.4	74.4	74.4	79	67.4	0	0	---	0.00	29.795 
20:40	74.2	74.2	74.2	79	67.3	0	0	---	0.00	29.795 
20:45	74.0	74.0	74.0	80	67.4	0	0	---	0.00	29.797 
20:50	73.9	73.9	73.9	80	67.3	0	0	---	0.00	29.797 
20:55	73.7	73.7	73.7	81	67.5	0	0	---	0.00	29.797 
21:00	73.5	73.5	73.5	81	67.3	0	0	---	0.00	29.794 
21:05	73.2	73.2	73.2	81	67.0	0	0	---	0.00	29.794 
21:10	73.0	73.0	73.0	82	67.2	0	0	---	0.00	29.794 
21:15	73.0	73.0	73.0	82	67.2	0	1	90	0.00	29.797 
21:20	72.8	72.8	72.8	82	67.0	0	0	---	0.00	29.797 
21:25	72.7	72.7	72.7	82	66.9	0	0	---	0.00	29.797 
21:30	72.7	72.7	72.7	82	66.9	0	2	90	0.00	29.797 
21:35	72.5	72.5	72.5	83	67.0	0	1	90	0.00	29.797 
21:40	72.5	72.5	72.5	83	67.0	0	1	90	0.00	29.797 
21:45	72.3	72.3	72.3	83	66.8	0	1	90	0.00	29.799 
21:50	72.3	72.3	72.3	84	67.2	0	1	90	0.00	29.799 
21:55	72.3	72.3	72.3	84	67.2	0	1	90	0.00	29.799 
22:00	72.1	72.1	72.1	84	67.0	0	1	90	0.00	29.798 
22:05	72.1	72.1	72.1	84	67.0	0	1	90	0.00	29.798 
22:10	72.0	72.0	72.0	84	66.9	0	1	90	0.00	29.798 
22:15	72.0	72.0	72.0	84	66.9	0	2	90	0.00	29.799 
22:20	71.8	71.8	71.8	84	66.7	0	2	90	0.00	29.799 
22:25	71.8	71.8	71.8	85	67.0	0	0	---	0.00	29.799 
22:30	71.6	71.6	71.6	85	66.8	0	1	90	0.00	29.804 
22:35	71.5	71.5	71.5	85	66.7	0	1	90	0.00	29.804 
22:40	71.5	71.5	71.5	85	66.7	0	1	90	0.00	29.804 
22:45	71.3	71.3	71.3	85	66.5	0	1	90	0.00	29.812 
22:50	71.1	71.1	71.1	85	66.4	0	1	90	0.00	29.812 
22:55	71.1	71.1	71.1	86	66.7	0	1	90	0.00	29.812 
23:00	71.1	71.1	71.1	86	66.7	0	2	90	0.00	29.814 
23:05	70.9	70.9	70.9	86	66.5	0	1	90	0.00	29.814 
23:10	70.9	70.9	70.9	86	66.5	0	2	90	0.00	29.814 
23:15	70.9	70.9	70.9	86	66.5	0	1	90	0.00	29.814 
23:20	70.9	70.9	70.9	86	66.5	0	1	90	0.00	29.814 
23:25	70.8	70.8	70.8	86	66.4	0	1	90	0.00	29.814 
23:30	70.8	70.8	70.8	86	66.4	0	1	90	0.00	29.813 
23:35	70.8	70.8	70.8	86	66.4	0	2	90	0.00	29.813 
23:40	70.8	70.8	70.8	86	66.4	0	1	90	0.00	29.813 
23:45	70.8	70.8	70.8	86	66.4	0	1	90	0.00	29.807 
23:50	70.6	70.6	70.6	87	66.5	0	1	90	0.00	29.807 
23:55	70.6	70.6	70.6	87	66.5	0	2	90	0.00	29.807 

CoCoRaHS
IN-AL-39
A2 Web Hosting
Creative Commons License
GoDaddy
search engine by freefind advanced

loaded 2018-11-17 12:15:06 • last modified 2010-11-18 10:43:29
Privacy PolicyDisclaimer
• wx.awcolley.com is powered by PmWiki v.2002016 •
• all content (unless otherwise noted) © 2018 A W Colley